sensor_id;sensor_type;location;lat;lon;timestamp;pressure;altitude;pressure_sealevel;temperature;humidity
33496;BME280;19836;55.812;37.560;2022-07-17T00:00:17;99484.88;;;18.09;64.52
33496;BME280;19836;55.812;37.560;2022-07-17T00:02:43;99490.47;;;18.06;64.54
33496;BME280;19836;55.812;37.560;2022-07-17T00:05:08;99491.44;;;18.05;64.49
33496;BME280;19836;55.812;37.560;2022-07-17T00:07:35;99487.00;;;18.04;64.95
33496;BME280;19836;55.812;37.560;2022-07-17T00:10:00;99493.41;;;18.03;65.09
33496;BME280;19836;55.812;37.560;2022-07-17T00:12:28;99490.69;;;18.03;64.98
33496;BME280;19836;55.812;37.560;2022-07-17T00:14:54;99489.72;;;18.04;65.24
33496;BME280;19836;55.812;37.560;2022-07-17T00:17:20;99490.56;;;18.05;65.23
33496;BME280;19836;55.812;37.560;2022-07-17T00:19:47;99487.19;;;18.01;65.18
33496;BME280;19836;55.812;37.560;2022-07-17T00:22:13;99484.38;;;18.03;65.46
33496;BME280;19836;55.812;37.560;2022-07-17T00:24:39;99483.63;;;18.01;65.59
33496;BME280;19836;55.812;37.560;2022-07-17T00:27:05;99485.44;;;18.00;65.56
33496;BME280;19836;55.812;37.560;2022-07-17T00:29:31;99485.63;;;17.97;65.76
33496;BME280;19836;55.812;37.560;2022-07-17T00:31:57;99482.38;;;17.92;65.57
33496;BME280;19836;55.812;37.560;2022-07-17T00:34:23;99485.38;;;17.88;65.66
33496;BME280;19836;55.812;37.560;2022-07-17T00:36:48;99490.69;;;17.89;65.72
33496;BME280;19836;55.812;37.560;2022-07-17T00:39:14;99483.44;;;17.90;65.85
33496;BME280;19836;55.812;37.560;2022-07-17T00:41:42;99484.50;;;17.87;65.93
33496;BME280;19836;55.812;37.560;2022-07-17T00:44:10;99477.31;;;17.86;65.88
33496;BME280;19836;55.812;37.560;2022-07-17T00:46:40;99483.53;;;17.88;65.88
33496;BME280;19836;55.812;37.560;2022-07-17T00:49:07;99490.78;;;17.88;66.14
33496;BME280;19836;55.812;37.560;2022-07-17T00:51:33;99487.31;;;17.86;66.18
33496;BME280;19836;55.812;37.560;2022-07-17T00:54:00;99475.59;;;17.85;66.56
33496;BME280;19836;55.812;37.560;2022-07-17T00:56:28;99481.41;;;17.79;66.36
33496;BME280;19836;55.812;37.560;2022-07-17T00:58:54;99480.75;;;17.76;66.74
33496;BME280;19836;55.812;37.560;2022-07-17T01:01:20;99476.47;;;17.72;66.76
33496;BME280;19836;55.812;37.560;2022-07-17T01:03:47;99475.59;;;17.71;66.81
33496;BME280;19836;55.812;37.560;2022-07-17T01:06:13;99482.78;;;17.72;66.90
33496;BME280;19836;55.812;37.560;2022-07-17T01:08:39;99480.06;;;17.72;66.90
33496;BME280;19836;55.812;37.560;2022-07-17T01:11:05;99481.97;;;17.70;66.71
33496;BME280;19836;55.812;37.560;2022-07-17T01:13:33;99479.47;;;17.67;66.83
33496;BME280;19836;55.812;37.560;2022-07-17T01:15:59;99484.09;;;17.65;67.05
33496;BME280;19836;55.812;37.560;2022-07-17T01:18:25;99491.47;;;17.63;66.95
33496;BME280;19836;55.812;37.560;2022-07-17T01:20:51;99486.16;;;17.62;67.23
33496;BME280;19836;55.812;37.560;2022-07-17T01:23:18;99484.50;;;17.59;67.55
33496;BME280;19836;55.812;37.560;2022-07-17T01:25:45;99485.47;;;17.58;67.28
33496;BME280;19836;55.812;37.560;2022-07-17T01:28:12;99486.31;;;17.59;67.24
33496;BME280;19836;55.812;37.560;2022-07-17T01:30:47;99493.38;;;17.61;67.43
33496;BME280;19836;55.812;37.560;2022-07-17T01:33:13;99496.91;;;17.63;67.20
33496;BME280;19836;55.812;37.560;2022-07-17T01:35:39;99496.69;;;17.66;67.09
33496;BME280;19836;55.812;37.560;2022-07-17T01:38:05;99501.94;;;17.69;67.24
33496;BME280;19836;55.812;37.560;2022-07-17T01:40:31;99499.03;;;17.72;67.21
33496;BME280;19836;55.812;37.560;2022-07-17T01:42:57;99498.81;;;17.75;67.19
33496;BME280;19836;55.812;37.560;2022-07-17T01:45:25;99498.44;;;17.81;67.28
33496;BME280;19836;55.812;37.560;2022-07-17T01:47:51;99500.88;;;17.86;67.06
33496;BME280;19836;55.812;37.560;2022-07-17T01:50:17;99498.25;;;17.84;66.82
33496;BME280;19836;55.812;37.560;2022-07-17T01:52:44;99500.19;;;17.82;66.95
33496;BME280;19836;55.812;37.560;2022-07-17T01:55:13;99503.75;;;17.83;67.39
33496;BME280;19836;55.812;37.560;2022-07-17T01:57:40;99498.34;;;17.83;67.25
33496;BME280;19836;55.812;37.560;2022-07-17T02:00:09;99497.38;;;17.84;67.24
33496;BME280;19836;55.812;37.560;2022-07-17T02:02:35;99497.19;;;17.87;67.32
33496;BME280;19836;55.812;37.560;2022-07-17T02:05:01;99497.09;;;17.88;67.24
33496;BME280;19836;55.812;37.560;2022-07-17T02:07:31;99498.84;;;17.89;67.17
33496;BME280;19836;55.812;37.560;2022-07-17T02:09:59;99506.78;;;17.92;67.33
33496;BME280;19836;55.812;37.560;2022-07-17T02:12:25;99507.53;;;17.94;67.18
33496;BME280;19836;55.812;37.560;2022-07-17T02:14:50;99502.69;;;17.99;67.08
33496;BME280;19836;55.812;37.560;2022-07-17T02:17:16;99501.53;;;18.03;66.97
33496;BME280;19836;55.812;37.560;2022-07-17T02:19:42;99503.06;;;18.07;66.88
33496;BME280;19836;55.812;37.560;2022-07-17T02:22:08;99499.19;;;18.11;67.19
33496;BME280;19836;55.812;37.560;2022-07-17T02:24:34;99499.84;;;18.15;66.87
33496;BME280;19836;55.812;37.560;2022-07-17T02:27:00;99512.47;;;18.16;66.84
33496;BME280;19836;55.812;37.560;2022-07-17T02:29:26;99507.91;;;18.16;67.11
33496;BME280;19836;55.812;37.560;2022-07-17T02:31:52;99507.91;;;18.16;66.95
33496;BME280;19836;55.812;37.560;2022-07-17T02:34:18;99501.63;;;18.16;66.62
33496;BME280;19836;55.812;37.560;2022-07-17T02:36:44;99511.41;;;18.18;66.69
33496;BME280;19836;55.812;37.560;2022-07-17T02:39:10;99499.56;;;18.19;66.85
33496;BME280;19836;55.812;37.560;2022-07-17T02:41:36;99506.66;;;18.22;66.73
33496;BME280;19836;55.812;37.560;2022-07-17T02:44:01;99505.34;;;18.27;66.70
33496;BME280;19836;55.812;37.560;2022-07-17T02:46:27;99498.00;;;18.29;66.71
33496;BME280;19836;55.812;37.560;2022-07-17T02:48:53;99506.16;;;18.29;66.67
33496;BME280;19836;55.812;37.560;2022-07-17T02:51:19;99505.25;;;18.29;66.73
33496;BME280;19836;55.812;37.560;2022-07-17T02:53:45;99508.84;;;18.29;66.95
33496;BME280;19836;55.812;37.560;2022-07-17T02:56:11;99509.47;;;18.34;66.77
33496;BME280;19836;55.812;37.560;2022-07-17T02:58:37;99504.50;;;18.41;66.75
33496;BME280;19836;55.812;37.560;2022-07-17T03:01:03;99507.00;;;18.44;66.93
33496;BME280;19836;55.812;37.560;2022-07-17T03:03:29;99505.94;;;18.46;67.06
33496;BME280;19836;55.812;37.560;2022-07-17T03:05:55;99509.44;;;18.48;67.01
33496;BME280;19836;55.812;37.560;2022-07-17T03:08:21;99511.19;;;18.49;67.04
33496;BME280;19836;55.812;37.560;2022-07-17T03:10:47;99510.19;;;18.50;66.84
33496;BME280;19836;55.812;37.560;2022-07-17T03:13:12;99518.25;;;18.52;66.93
33496;BME280;19836;55.812;37.560;2022-07-17T03:15:38;99502.53;;;18.57;66.99
33496;BME280;19836;55.812;37.560;2022-07-17T03:18:04;99505.59;;;18.65;66.79
33496;BME280;19836;55.812;37.560;2022-07-17T03:20:30;99505.19;;;18.71;66.77
33496;BME280;19836;55.812;37.560;2022-07-17T03:22:56;99507.41;;;18.78;66.65
33496;BME280;19836;55.812;37.560;2022-07-17T03:25:22;99506.09;;;18.84;66.63
33496;BME280;19836;55.812;37.560;2022-07-17T03:27:48;99509.38;;;18.89;66.18
33496;BME280;19836;55.812;37.560;2022-07-17T03:30:14;99511.81;;;18.93;65.82
33496;BME280;19836;55.812;37.560;2022-07-17T03:32:40;99521.34;;;18.99;65.73
33496;BME280;19836;55.812;37.560;2022-07-17T03:35:06;99517.47;;;19.03;65.17
33496;BME280;19836;55.812;37.560;2022-07-17T03:37:33;99515.22;;;19.09;64.98
33496;BME280;19836;55.812;37.560;2022-07-17T03:39:59;99514.03;;;19.13;64.66
33496;BME280;19836;55.812;37.560;2022-07-17T03:42:27;99515.44;;;19.19;64.52
33496;BME280;19836;55.812;37.560;2022-07-17T03:44:53;99514.28;;;19.23;64.20
33496;BME280;19836;55.812;37.560;2022-07-17T03:47:19;99522.34;;;19.24;64.31
33496;BME280;19836;55.812;37.560;2022-07-17T03:49:44;99516.47;;;19.30;63.95
33496;BME280;19836;55.812;37.560;2022-07-17T03:52:10;99525.28;;;19.34;64.16
33496;BME280;19836;55.812;37.560;2022-07-17T03:54:36;99526.38;;;19.31;63.74
33496;BME280;19836;55.812;37.560;2022-07-17T03:57:02;99534.56;;;19.17;63.94
33496;BME280;19836;55.812;37.560;2022-07-17T03:59:28;99540.63;;;19.08;64.33
33496;BME280;19836;55.812;37.560;2022-07-17T04:01:54;99541.59;;;19.07;64.25
33496;BME280;19836;55.812;37.560;2022-07-17T04:04:21;99543.00;;;19.00;64.53
33496;BME280;19836;55.812;37.560;2022-07-17T04:06:47;99553.28;;;18.95;64.54
33496;BME280;19836;55.812;37.560;2022-07-17T04:09:13;99543.50;;;18.93;64.87
33496;BME280;19836;55.812;37.560;2022-07-17T04:11:39;99535.34;;;18.93;65.14
33496;BME280;19836;55.812;37.560;2022-07-17T04:14:05;99535.03;;;18.97;65.14
33496;BME280;19836;55.812;37.560;2022-07-17T04:16:30;99537.47;;;19.02;64.84
33496;BME280;19836;55.812;37.560;2022-07-17T04:18:56;99534.22;;;19.09;64.44
33496;BME280;19836;55.812;37.560;2022-07-17T04:21:22;99530.00;;;19.18;64.31
33496;BME280;19836;55.812;37.560;2022-07-17T04:23:48;99527.00;;;19.22;63.22
33496;BME280;19836;55.812;37.560;2022-07-17T04:26:14;99520.38;;;19.26;62.60
33496;BME280;19836;55.812;37.560;2022-07-17T04:28:40;99518.88;;;19.35;62.11
33496;BME280;19836;55.812;37.560;2022-07-17T04:31:06;99517.38;;;19.43;61.26
33496;BME280;19836;55.812;37.560;2022-07-17T04:33:33;99517.59;;;19.53;60.70
33496;BME280;19836;55.812;37.560;2022-07-17T04:35:59;99517.06;;;19.60;60.49
33496;BME280;19836;55.812;37.560;2022-07-17T04:38:25;99514.91;;;19.65;59.82
33496;BME280;19836;55.812;37.560;2022-07-17T04:40:50;99510.75;;;19.60;59.29
33496;BME280;19836;55.812;37.560;2022-07-17T04:43:16;99505.22;;;19.61;58.93
33496;BME280;19836;55.812;37.560;2022-07-17T04:45:42;99506.53;;;19.68;58.77
33496;BME280;19836;55.812;37.560;2022-07-17T04:48:08;99501.75;;;19.72;58.62
33496;BME280;19836;55.812;37.560;2022-07-17T04:50:34;99501.94;;;19.81;58.60
33496;BME280;19836;55.812;37.560;2022-07-17T04:53:00;99497.69;;;19.90;58.81
33496;BME280;19836;55.812;37.560;2022-07-17T04:55:27;99505.09;;;20.00;58.27
33496;BME280;19836;55.812;37.560;2022-07-17T04:57:53;99486.59;;;20.05;57.84
33496;BME280;19836;55.812;37.560;2022-07-17T05:00:19;99498.03;;;20.10;57.28
33496;BME280;19836;55.812;37.560;2022-07-17T05:02:46;99492.38;;;20.13;56.97
33496;BME280;19836;55.812;37.560;2022-07-17T05:05:12;99499.03;;;20.09;56.47
33496;BME280;19836;55.812;37.560;2022-07-17T05:07:38;99499.56;;;20.02;56.56
33496;BME280;19836;55.812;37.560;2022-07-17T05:10:05;99493.69;;;19.95;56.43
33496;BME280;19836;55.812;37.560;2022-07-17T05:12:31;99506.72;;;19.90;56.41
33496;BME280;19836;55.812;37.560;2022-07-17T05:14:57;99506.19;;;19.85;56.43
33496;BME280;19836;55.812;37.560;2022-07-17T05:17:23;99505.44;;;19.83;56.52
33496;BME280;19836;55.812;37.560;2022-07-17T05:19:49;99505.44;;;19.83;56.19
33496;BME280;19836;55.812;37.560;2022-07-17T05:22:14;99507.38;;;19.81;56.01
33496;BME280;19836;55.812;37.560;2022-07-17T05:24:40;99512.06;;;19.79;55.72
33496;BME280;19836;55.812;37.560;2022-07-17T05:27:06;99510.88;;;19.71;56.20
33496;BME280;19836;55.812;37.560;2022-07-17T05:29:32;99508.03;;;19.60;56.22
33496;BME280;19836;55.812;37.560;2022-07-17T05:31:58;99524.22;;;19.49;56.31
33496;BME280;19836;55.812;37.560;2022-07-17T05:34:24;99520.22;;;19.42;56.32
33496;BME280;19836;55.812;37.560;2022-07-17T05:36:50;99520.09;;;19.43;56.76
33496;BME280;19836;55.812;37.560;2022-07-17T05:39:16;99528.69;;;19.50;56.58
33496;BME280;19836;55.812;37.560;2022-07-17T05:41:41;99521.22;;;19.53;56.62
33496;BME280;19836;55.812;37.560;2022-07-17T05:44:07;99523.94;;;19.53;56.48
33496;BME280;19836;55.812;37.560;2022-07-17T05:46:33;99521.41;;;19.50;56.41
33496;BME280;19836;55.812;37.560;2022-07-17T05:48:59;99520.09;;;19.43;56.82
33496;BME280;19836;55.812;37.560;2022-07-17T05:51:25;99518.56;;;19.39;56.97
33496;BME280;19836;55.812;37.560;2022-07-17T05:53:51;99512.59;;;19.34;57.58
33496;BME280;19836;55.812;37.560;2022-07-17T05:56:17;99506.06;;;19.37;57.33
33496;BME280;19836;55.812;37.560;2022-07-17T05:58:43;99506.41;;;19.57;57.13
33496;BME280;19836;55.812;37.560;2022-07-17T06:01:09;99501.75;;;19.84;56.36
33496;BME280;19836;55.812;37.560;2022-07-17T06:03:35;99498.47;;;20.04;55.94
33496;BME280;19836;55.812;37.560;2022-07-17T06:06:01;99494.13;;;20.14;55.29
33496;BME280;19836;55.812;37.560;2022-07-17T06:08:27;99500.28;;;20.29;55.07
33496;BME280;19836;55.812;37.560;2022-07-17T06:10:52;99496.00;;;20.37;54.42
33496;BME280;19836;55.812;37.560;2022-07-17T06:13:18;99497.53;;;20.41;54.36
33496;BME280;19836;55.812;37.560;2022-07-17T06:15:44;99492.72;;;20.45;54.71
33496;BME280;19836;55.812;37.560;2022-07-17T06:18:10;99484.88;;;20.53;54.32
33496;BME280;19836;55.812;37.560;2022-07-17T06:20:36;99487.03;;;20.60;54.26
33496;BME280;19836;55.812;37.560;2022-07-17T06:23:02;99491.38;;;20.63;53.50
33496;BME280;19836;55.812;37.560;2022-07-17T06:25:27;99497.22;;;20.69;52.95
33496;BME280;19836;55.812;37.560;2022-07-17T06:27:53;99499.75;;;20.83;52.22
33496;BME280;19836;55.812;37.560;2022-07-17T06:30:19;99493.91;;;20.89;51.84
33496;BME280;19836;55.812;37.560;2022-07-17T06:32:45;99491.13;;;21.02;51.63
33496;BME280;19836;55.812;37.560;2022-07-17T06:35:11;99494.63;;;21.15;51.48
33496;BME280;19836;55.812;37.560;2022-07-17T06:37:37;99484.03;;;21.34;50.79
33496;BME280;19836;55.812;37.560;2022-07-17T06:40:05;99486.16;;;21.41;50.55
33496;BME280;19836;55.812;37.560;2022-07-17T06:42:32;99488.75;;;21.32;50.65
33496;BME280;19836;55.812;37.560;2022-07-17T06:44:58;99487.59;;;21.23;50.93
33496;BME280;19836;55.812;37.560;2022-07-17T06:47:24;99485.50;;;21.27;51.19
33496;BME280;19836;55.812;37.560;2022-07-17T06:49:50;99482.66;;;21.28;51.12
33496;BME280;19836;55.812;37.560;2022-07-17T06:52:16;99480.19;;;21.25;50.59
33496;BME280;19836;55.812;37.560;2022-07-17T06:54:42;99473.88;;;21.36;50.74
33496;BME280;19836;55.812;37.560;2022-07-17T06:57:08;99476.78;;;21.56;50.44
33496;BME280;19836;55.812;37.560;2022-07-17T06:59:34;99472.16;;;21.80;50.41
33496;BME280;19836;55.812;37.560;2022-07-17T07:02:00;99475.88;;;22.01;50.24
33496;BME280;19836;55.812;37.560;2022-07-17T07:04:26;99475.13;;;22.10;49.87
33496;BME280;19836;55.812;37.560;2022-07-17T07:06:52;99479.22;;;22.16;49.40
33496;BME280;19836;55.812;37.560;2022-07-17T07:09:18;99483.06;;;22.13;49.26
33496;BME280;19836;55.812;37.560;2022-07-17T07:11:44;99482.09;;;22.14;49.20
33496;BME280;19836;55.812;37.560;2022-07-17T07:14:10;99478.84;;;22.20;48.85
33496;BME280;19836;55.812;37.560;2022-07-17T07:16:36;99476.34;;;22.17;48.13
33496;BME280;19836;55.812;37.560;2022-07-17T07:19:02;99472.63;;;22.18;48.12
33496;BME280;19836;55.812;37.560;2022-07-17T07:21:28;99467.19;;;22.29;48.32
33496;BME280;19836;55.812;37.560;2022-07-17T07:23:54;99475.88;;;22.45;47.67
33496;BME280;19836;55.812;37.560;2022-07-17T07:26:20;99474.88;;;22.35;47.00
33496;BME280;19836;55.812;37.560;2022-07-17T07:28:46;99466.69;;;22.24;46.69
33496;BME280;19836;55.812;37.560;2022-07-17T07:31:12;99473.59;;;22.28;46.91
33496;BME280;19836;55.812;37.560;2022-07-17T07:33:39;99478.09;;;22.40;47.24
33496;BME280;19836;55.812;37.560;2022-07-17T07:36:05;99469.91;;;22.40;46.65
33496;BME280;19836;55.812;37.560;2022-07-17T07:38:31;99485.56;;;22.49;45.95
33496;BME280;19836;55.812;37.560;2022-07-17T07:40:57;99475.84;;;22.56;45.14
33496;BME280;19836;55.812;37.560;2022-07-17T07:43:25;99464.19;;;22.54;44.57
33496;BME280;19836;55.812;37.560;2022-07-17T07:45:51;99466.19;;;22.30;45.01
33496;BME280;19836;55.812;37.560;2022-07-17T07:48:17;99456.25;;;22.07;45.64
33496;BME280;19836;55.812;37.560;2022-07-17T07:50:43;99463.81;;;22.26;45.95
33496;BME280;19836;55.812;37.560;2022-07-17T07:53:09;99467.03;;;22.53;45.76
33496;BME280;19836;55.812;37.560;2022-07-17T07:55:35;99469.06;;;22.82;45.48
33496;BME280;19836;55.812;37.560;2022-07-17T08:00:28;99457.00;;;23.16;45.04
33496;BME280;19836;55.812;37.560;2022-07-17T08:02:54;99471.38;;;23.29;43.95
33496;BME280;19836;55.812;37.560;2022-07-17T08:05:20;99470.91;;;23.24;43.60
33496;BME280;19836;55.812;37.560;2022-07-17T08:07:46;99466.38;;;23.34;43.15
33496;BME280;19836;55.812;37.560;2022-07-17T08:10:12;99473.53;;;23.46;42.80
33496;BME280;19836;55.812;37.560;2022-07-17T08:12:37;99477.13;;;23.47;42.77
33496;BME280;19836;55.812;37.560;2022-07-17T08:15:05;99485.00;;;23.40;43.30
33496;BME280;19836;55.812;37.560;2022-07-17T08:17:31;99481.94;;;23.34;43.49
33496;BME280;19836;55.812;37.560;2022-07-17T08:19:57;99480.50;;;23.39;43.54
33496;BME280;19836;55.812;37.560;2022-07-17T08:22:22;99485.25;;;23.37;43.38
33496;BME280;19836;55.812;37.560;2022-07-17T08:24:48;99478.63;;;23.19;43.45
33496;BME280;19836;55.812;37.560;2022-07-17T08:27:14;99482.44;;;22.96;43.45
33496;BME280;19836;55.812;37.560;2022-07-17T08:29:40;99480.13;;;22.81;43.76
33496;BME280;19836;55.812;37.560;2022-07-17T08:32:06;99482.41;;;22.65;44.04
33496;BME280;19836;55.812;37.560;2022-07-17T08:34:32;99482.28;;;22.66;43.43
33496;BME280;19836;55.812;37.560;2022-07-17T08:36:58;99481.06;;;22.59;42.66
33496;BME280;19836;55.812;37.560;2022-07-17T08:39:24;99479.81;;;22.52;42.18
33496;BME280;19836;55.812;37.560;2022-07-17T08:41:49;99478.44;;;22.69;41.53
33496;BME280;19836;55.812;37.560;2022-07-17T08:44:15;99478.41;;;23.11;41.25
33496;BME280;19836;55.812;37.560;2022-07-17T08:46:41;99482.72;;;23.66;40.54
33496;BME280;19836;55.812;37.560;2022-07-17T08:49:07;99475.47;;;23.96;39.26
33496;BME280;19836;55.812;37.560;2022-07-17T08:51:34;99469.22;;;24.24;39.21
33496;BME280;19836;55.812;37.560;2022-07-17T08:54:00;99473.50;;;24.47;39.01
33496;BME280;19836;55.812;37.560;2022-07-17T08:56:27;99471.06;;;24.54;38.72
33496;BME280;19836;55.812;37.560;2022-07-17T08:58:54;99469.31;;;24.43;38.66
33496;BME280;19836;55.812;37.560;2022-07-17T09:01:21;99479.38;;;24.33;39.00
33496;BME280;19836;55.812;37.560;2022-07-17T09:06:21;99489.59;;;24.01;39.48
33496;BME280;19836;55.812;37.560;2022-07-17T09:08:47;99495.88;;;23.92;38.84
33496;BME280;19836;55.812;37.560;2022-07-17T09:11:14;99486.72;;;23.82;38.96
33496;BME280;19836;55.812;37.560;2022-07-17T09:13:45;99492.88;;;23.75;39.01
33496;BME280;19836;55.812;37.560;2022-07-17T09:16:12;99481.84;;;23.86;39.08
33496;BME280;19836;55.812;37.560;2022-07-17T09:18:43;99492.50;;;24.09;38.86
33496;BME280;19836;55.812;37.560;2022-07-17T09:23:44;99511.25;;;24.74;38.61
33496;BME280;19836;55.812;37.560;2022-07-17T09:26:10;99510.06;;;24.67;39.10
33496;BME280;19836;55.812;37.560;2022-07-17T09:28:46;99497.59;;;24.53;39.72
33496;BME280;19836;55.812;37.560;2022-07-17T09:31:12;99501.28;;;24.33;40.25
33496;BME280;19836;55.812;37.560;2022-07-17T09:33:40;99514.41;;;24.09;40.81
33496;BME280;19836;55.812;37.560;2022-07-17T09:36:09;99512.31;;;23.92;41.36
33496;BME280;19836;55.812;37.560;2022-07-17T09:38:37;99514.50;;;23.98;41.51
33496;BME280;19836;55.812;37.560;2022-07-17T09:43:53;99503.25;;;25.20;40.10
33496;BME280;19836;55.812;37.560;2022-07-17T09:48:58;99499.94;;;28.23;36.45
33496;BME280;19836;55.812;37.560;2022-07-17T09:51:29;99500.78;;;29.48;33.75
33496;BME280;19836;55.812;37.560;2022-07-17T09:53:57;99499.97;;;29.55;32.46
33496;BME280;19836;55.812;37.560;2022-07-17T09:56:25;99493.72;;;29.45;31.87
33496;BME280;19836;55.812;37.560;2022-07-17T09:59:13;99484.63;;;29.61;31.42
33496;BME280;19836;55.812;37.560;2022-07-17T10:01:40;99494.78;;;29.60;31.29
33496;BME280;19836;55.812;37.560;2022-07-17T10:04:07;99497.09;;;29.07;31.49
33496;BME280;19836;55.812;37.560;2022-07-17T10:06:33;99499.34;;;28.70;31.39
33496;BME280;19836;55.812;37.560;2022-07-17T10:08:59;99503.91;;;29.45;31.10
33496;BME280;19836;55.812;37.560;2022-07-17T10:11:28;99499.28;;;30.17;29.46
33496;BME280;19836;55.812;37.560;2022-07-17T10:13:57;99505.09;;;30.93;28.52
33496;BME280;19836;55.812;37.560;2022-07-17T10:16:29;99493.16;;;31.54;27.62
33496;BME280;19836;55.812;37.560;2022-07-17T10:18:55;99497.16;;;31.96;26.83
33496;BME280;19836;55.812;37.560;2022-07-17T10:21:26;99496.72;;;32.22;26.89
33496;BME280;19836;55.812;37.560;2022-07-17T10:28:57;99505.56;;;31.04;25.91
33496;BME280;19836;55.812;37.560;2022-07-17T10:31:25;99493.00;;;30.39;26.06
33496;BME280;19836;55.812;37.560;2022-07-17T10:34:17;99486.63;;;30.31;26.75
33496;BME280;19836;55.812;37.560;2022-07-17T10:36:43;99490.34;;;30.70;27.08
33496;BME280;19836;55.812;37.560;2022-07-17T10:39:12;99479.81;;;31.72;26.26
33496;BME280;19836;55.812;37.560;2022-07-17T10:41:42;99485.00;;;33.28;25.12
33496;BME280;19836;55.812;37.560;2022-07-17T10:44:08;99494.63;;;34.92;23.58
33496;BME280;19836;55.812;37.560;2022-07-17T10:46:35;99486.31;;;35.71;22.00
33496;BME280;19836;55.812;37.560;2022-07-17T10:49:02;99488.09;;;36.18;21.67
33496;BME280;19836;55.812;37.560;2022-07-17T10:51:30;99480.28;;;36.85;20.88
33496;BME280;19836;55.812;37.560;2022-07-17T10:53:58;99490.97;;;37.14;20.59
33496;BME280;19836;55.812;37.560;2022-07-17T10:56:27;99482.97;;;36.21;21.23
33496;BME280;19836;55.812;37.560;2022-07-17T10:59:00;99483.31;;;35.66;21.37
33496;BME280;19836;55.812;37.560;2022-07-17T11:01:26;99476.69;;;33.84;22.47
33496;BME280;19836;55.812;37.560;2022-07-17T11:03:55;99473.53;;;33.31;23.44
33496;BME280;19836;55.812;37.560;2022-07-17T11:06:28;99472.00;;;34.74;23.07
33496;BME280;19836;55.812;37.560;2022-07-17T11:11:46;99455.75;;;31.95;23.59
33496;BME280;19836;55.812;37.560;2022-07-17T11:14:17;99452.31;;;31.48;24.18
33496;BME280;19836;55.812;37.560;2022-07-17T11:16:47;99455.59;;;33.33;23.12
33496;BME280;19836;55.812;37.560;2022-07-17T11:19:26;99449.19;;;33.96;21.60
33496;BME280;19836;55.812;37.560;2022-07-17T11:21:54;99461.13;;;32.11;22.34
33496;BME280;19836;55.812;37.560;2022-07-17T11:24:20;99462.03;;;30.44;23.77
33496;BME280;19836;55.812;37.560;2022-07-17T11:26:50;99467.63;;;29.32;25.21
33496;BME280;19836;55.812;37.560;2022-07-17T11:29:16;99465.88;;;28.65;26.14
33496;BME280;19836;55.812;37.560;2022-07-17T11:31:43;99469.53;;;28.07;26.64
33496;BME280;19836;55.812;37.560;2022-07-17T11:34:10;99461.50;;;27.53;27.35
33496;BME280;19836;55.812;37.560;2022-07-17T11:36:43;99461.59;;;27.08;27.84
33496;BME280;19836;55.812;37.560;2022-07-17T11:39:17;99461.72;;;26.89;28.49
33496;BME280;19836;55.812;37.560;2022-07-17T11:41:46;99457.47;;;26.77;28.81
33496;BME280;19836;55.812;37.560;2022-07-17T11:44:15;99465.47;;;26.71;29.57
33496;BME280;19836;55.812;37.560;2022-07-17T11:46:43;99461.25;;;26.76;30.25
33496;BME280;19836;55.812;37.560;2022-07-17T11:49:11;99466.53;;;26.87;30.04
33496;BME280;19836;55.812;37.560;2022-07-17T11:51:48;99454.84;;;29.23;28.17
33496;BME280;19836;55.812;37.560;2022-07-17T11:54:15;99457.06;;;32.65;25.21
33496;BME280;19836;55.812;37.560;2022-07-17T11:56:52;99453.81;;;35.18;21.69
33496;BME280;19836;55.812;37.560;2022-07-17T11:59:30;99453.31;;;36.40;20.30
33496;BME280;19836;55.812;37.560;2022-07-17T12:02:10;99450.22;;;36.87;19.38
33496;BME280;19836;55.812;37.560;2022-07-17T12:04:47;99445.03;;;36.97;18.94
33496;BME280;19836;55.812;37.560;2022-07-17T12:07:13;99436.97;;;36.69;18.95
33496;BME280;19836;55.812;37.560;2022-07-17T12:09:39;99445.69;;;34.15;20.45
33496;BME280;19836;55.812;37.560;2022-07-17T12:12:05;99437.75;;;31.91;22.38
33496;BME280;19836;55.812;37.560;2022-07-17T12:14:31;99443.88;;;30.41;23.60
33496;BME280;19836;55.812;37.560;2022-07-17T12:17:02;99433.09;;;31.69;23.04
33496;BME280;19836;55.812;37.560;2022-07-17T12:19:29;99437.13;;;33.68;22.11
33496;BME280;19836;55.812;37.560;2022-07-17T12:22:01;99439.50;;;35.28;20.91
33496;BME280;19836;55.812;37.560;2022-07-17T12:24:29;99425.59;;;36.45;20.19
33496;BME280;19836;55.812;37.560;2022-07-17T12:26:57;99436.94;;;35.33;20.03
33496;BME280;19836;55.812;37.560;2022-07-17T12:29:24;99430.41;;;32.99;21.82
33496;BME280;19836;55.812;37.560;2022-07-17T12:32:06;99433.13;;;31.24;23.60
33496;BME280;19836;55.812;37.560;2022-07-17T12:34:34;99443.09;;;30.71;24.25
33496;BME280;19836;55.812;37.560;2022-07-17T12:37:00;99440.22;;;32.37;23.09
33496;BME280;19836;55.812;37.560;2022-07-17T12:39:26;99433.31;;;33.90;21.23
33496;BME280;19836;55.812;37.560;2022-07-17T12:41:52;99428.34;;;35.28;20.04
33496;BME280;19836;55.812;37.560;2022-07-17T12:44:21;99436.13;;;36.36;19.03
33496;BME280;19836;55.812;37.560;2022-07-17T12:46:46;99432.47;;;37.12;18.74
33496;BME280;19836;55.812;37.560;2022-07-17T12:49:12;99422.03;;;37.70;18.32
33496;BME280;19836;55.812;37.560;2022-07-17T12:51:41;99427.25;;;37.91;17.68
33496;BME280;19836;55.812;37.560;2022-07-17T12:54:07;99417.09;;;37.72;16.89
33496;BME280;19836;55.812;37.560;2022-07-17T12:56:33;99420.25;;;37.44;17.36
33496;BME280;19836;55.812;37.560;2022-07-17T12:59:02;99416.09;;;37.22;17.11
33496;BME280;19836;55.812;37.560;2022-07-17T13:01:28;99424.53;;;37.16;16.96
33496;BME280;19836;55.812;37.560;2022-07-17T13:03:54;99416.16;;;37.09;16.47
33496;BME280;19836;55.812;37.560;2022-07-17T13:06:20;99410.50;;;36.78;16.61
33496;BME280;19836;55.812;37.560;2022-07-17T13:08:49;99406.53;;;36.29;16.94